Antonios — SY8410 — position and weather

sailwx.info

Track history (hours):
 
Tides and Currents Weather Stations Pressure Air Temp Water Temp Dewpoint Dewpoint Depression Visibility Wind Speed Wind Dir Waves Ship Positions

Antonios

Last reported at 2018-Feb-25 14:10 UTC. Time now 2018-Feb-25 19:44 UTC.
Position N 37°11' E 025°49'.

Length 57 m; draft 3 m.

Type: Tanker. MMSI: 239191300.

Date/timePositionNaut miles runAvg speedWind from/ knotsBaromVisibWave heightAir tempDewpointWater temp
2018-Feb-25 14:10N 37°11' E 025°49'1 9.0
2018-Feb-25 14:00N 37°12' E 025°47'5 9.4
2018-Feb-25 13:30N 37°12' E 025°41'610.1
2018-Feb-25 12:57N 37°13' E 025°34'4 9.9
2018-Feb-25 12:30N 37°14' E 025°29'5 9.7
2018-Feb-25 12:00N 37°15' E 025°23'5 9.5
2018-Feb-25 11:30N 37°16' E 025°17'5 9.4
2018-Feb-25 11:00N 37°18' E 025°11'5 9.3
2018-Feb-25 10:27N 37°19' E 025°05'4 9.7
2018-Feb-25 10:00N 37°20' E 024°60'5 9.5
2018-Feb-25 09:30N 37°21' E 024°54'5 9.4
2018-Feb-25 09:00N 37°22' E 024°49'50 8.7
2018-Feb-25 03:16N 37°35' E 023°48'3 9.2
2018-Feb-25 02:57N 37°36' E 023°45'4 9.3
2018-Feb-25 02:30N 37°37' E 023°39'5 9.4
2018-Feb-25 02:00N 37°38' E 023°34'5 9.4
2018-Feb-25 01:30N 37°39' E 023°28'5 9.6
2018-Feb-25 01:00N 37°40' E 023°22'4 7.9
2018-Feb-25 00:30N 37°42' E 023°18'5 9.6
2018-Feb-25 00:00N 37°46' E 023°15'5 9.6
2018-Feb-24 23:30N 37°50' E 023°12'5 9.5
2018-Feb-24 23:00N 37°53' E 023°08'2 4.9
2018-Feb-24 22:30N 37°55' E 023°05'0 0.0
2018-Feb-24 22:00N 37°55' E 023°05'0 0.0
2018-Feb-24 21:30N 37°55' E 023°05'0 0.0
2018-Feb-24 21:00N 37°55' E 023°05'0 0.0
2018-Feb-24 20:30N 37°55' E 023°05'0 0.0
2018-Feb-24 20:00N 37°55' E 023°05'0 0.0
2018-Feb-24 19:30N 37°55' E 023°05'0 0.0
2018-Feb-24 19:00N 37°55' E 023°05'0 0.0
2018-Feb-24 18:30N 37°55' E 023°05'0 0.0
2018-Feb-24 18:00N 37°55' E 023°05'0 0.0
2018-Feb-24 17:30N 37°55' E 023°05'0 0.0
2018-Feb-24 17:00N 37°55' E 023°05'0 0.0
2018-Feb-24 16:30N 37°55' E 023°05'0 0.0
2018-Feb-24 16:00N 37°55' E 023°05'0 0.0
2018-Feb-24 15:30N 37°55' E 023°05'0 0.0
2018-Feb-24 15:00N 37°55' E 023°05'0 0.3
2018-Feb-24 14:30N 37°55' E 023°05'1 2.1
2018-Feb-24 14:00N 37°54' E 023°04'0 0.0
2018-Feb-24 13:30N 37°54' E 023°04'0 0.1
2018-Feb-24 13:00N 37°54' E 023°04'0 0.0
2018-Feb-24 12:30N 37°54' E 023°04'0 0.1
2018-Feb-24 12:00N 37°54' E 023°04'0 0.0
2018-Feb-24 11:30N 37°54' E 023°04'0 0.1
2018-Feb-24 11:00N 37°54' E 023°04'0 0.0
2018-Feb-24 10:30N 37°54' E 023°04'0 0.0
2018-Feb-24 10:00N 37°54' E 023°04'0 0.0
2018-Feb-24 09:30N 37°54' E 023°04'0 0.0
2018-Feb-24 09:00N 37°54' E 023°04'0 0.0
2018-Feb-24 08:30N 37°54' E 023°04'0 0.0
2018-Feb-24 08:00N 37°54' E 023°04'0 0.0
2018-Feb-24 07:30N 37°54' E 023°04'0 0.0
2018-Feb-24 07:00N 37°54' E 023°04'0 0.0
2018-Feb-24 06:30N 37°54' E 023°04'0 0.0
2018-Feb-24 06:00N 37°54' E 023°04'0 0.1
2018-Feb-24 05:30N 37°54' E 023°04'0 0.1
2018-Feb-24 05:00N 37°54' E 023°04'0 0.2
2018-Feb-24 04:30N 37°54' E 023°04'0 0.0
2018-Feb-24 04:00N 37°54' E 023°04'0 0.0
2018-Feb-24 03:30N 37°54' E 023°04'0 0.0
2018-Feb-24 03:00N 37°54' E 023°04'0 0.0
2018-Feb-24 02:30N 37°54' E 023°04'0 0.0
2018-Feb-24 02:00N 37°54' E 023°04'0 0.0
2018-Feb-24 01:30N 37°54' E 023°04'0 0.0
2018-Feb-24 01:00N 37°54' E 023°04'0 0.0
2018-Feb-24 00:30N 37°54' E 023°04'0 0.0
2018-Feb-24 00:00N 37°54' E 023°04'0 0.0
2018-Feb-23 23:30N 37°54' E 023°04'0 0.0
2018-Feb-23 23:00N 37°54' E 023°04'0 0.0
2018-Feb-23 22:30N 37°54' E 023°04'0 0.0
2018-Feb-23 22:00N 37°54' E 023°04'0 0.0
2018-Feb-23 21:30N 37°54' E 023°04'0 0.0
2018-Feb-23 21:00N 37°54' E 023°04'0 0.0
2018-Feb-23 20:30N 37°54' E 023°04'0 0.1
2018-Feb-23 20:00N 37°54' E 023°04'0 0.1
2018-Feb-23 19:30N 37°54' E 023°04'0 0.1
2018-Feb-23 19:00N 37°54' E 023°04'0 0.1
2018-Feb-23 18:30N 37°54' E 023°04'0 0.0
2018-Feb-23 18:00N 37°54' E 023°04'0 0.0
2018-Feb-23 17:30N 37°54' E 023°04'0 0.0
2018-Feb-23 17:00N 37°54' E 023°04'0 0.0
2018-Feb-23 16:30N 37°54' E 023°04'0 0.0
2018-Feb-23 16:00N 37°54' E 023°04'0 0.0
2018-Feb-23 15:30N 37°54' E 023°04'0 0.0
2018-Feb-23 15:00N 37°54' E 023°04'0 0.0
2018-Feb-23 14:30N 37°54' E 023°04'0 0.0
2018-Feb-23 14:00N 37°54' E 023°04'0 0.0
2018-Feb-23 13:30N 37°54' E 023°04'0 0.0
2018-Feb-23 13:00N 37°54' E 023°04'0 0.0
2018-Feb-23 12:30N 37°54' E 023°04'0 0.0
2018-Feb-23 12:00N 37°54' E 023°04'0 0.0
2018-Feb-23 11:30N 37°54' E 023°04'0 0.0
2018-Feb-23 11:00N 37°54' E 023°04'2 3.4
2018-Feb-23 10:30N 37°54' E 023°06'510.0
2018-Feb-23 10:00N 37°51' E 023°11'611.2
2018-Feb-23 09:30N 37°46' E 023°15'511.0
2018-Feb-23 09:00N 37°41' E 023°18'510.3
2018-Feb-23 08:30N 37°40' E 023°24'510.5
2018-Feb-23 08:00N 37°38' E 023°31'510.8
2018-Feb-23 07:30N 37°37' E 023°37'510.7
2018-Feb-23 07:00N 37°36' E 023°44'4910.7
2018-Feb-23 02:25N 37°23' E 024°44'410.7
2018-Feb-23 02:00N 37°22' E 024°49'510.2
2018-Feb-23 01:30N 37°20' E 024°55'510.2
2018-Feb-23 01:00N 37°19' E 025°01'510.6
2018-Feb-23 00:30N 37°18' E 025°08'510.8
2018-Feb-23 00:00N 37°17' E 025°15'510.8
2018-Feb-22 23:30N 37°16' E 025°21'510.5
2018-Feb-22 23:00N 37°16' E 025°28'510.1
2018-Feb-22 22:30N 37°14' E 025°34'510.5
2018-Feb-22 22:00N 37°13' E 025°40'510.7
2018-Feb-22 21:30N 37°12' E 025°47'  
Track history (hours):
 
Tides and Currents Weather Stations Pressure Air Temp Water Temp Dewpoint Dewpoint Depression Visibility Wind Speed Wind Dir Waves Ship Positions

Antonios

Last reported at 2018-Feb-25 14:10 UTC. Time now 2018-Feb-25 19:44 UTC.
Position N 37°11' E 025°49'.

Length 57 m; draft 3 m.

Type: Tanker. MMSI: 239191300.

Date/timePositionNaut miles runAvg speedWind from/ knotsBaromVisibWave heightAir tempDewpointWater temp
2018-Feb-25 14:10N 37°11' E 025°49'1 9.0
2018-Feb-25 14:00N 37°12' E 025°47'5 9.4
2018-Feb-25 13:30N 37°12' E 025°41'610.1
2018-Feb-25 12:57N 37°13' E 025°34'4 9.9
2018-Feb-25 12:30N 37°14' E 025°29'5 9.7
2018-Feb-25 12:00N 37°15' E 025°23'5 9.5
2018-Feb-25 11:30N 37°16' E 025°17'5 9.4
2018-Feb-25 11:00N 37°18' E 025°11'5 9.3
2018-Feb-25 10:27N 37°19' E 025°05'4 9.7
2018-Feb-25 10:00N 37°20' E 024°60'5 9.5
2018-Feb-25 09:30N 37°21' E 024°54'5 9.4
2018-Feb-25 09:00N 37°22' E 024°49'50 8.7
2018-Feb-25 03:16N 37°35' E 023°48'3 9.2
2018-Feb-25 02:57N 37°36' E 023°45'4 9.3
2018-Feb-25 02:30N 37°37' E 023°39'5 9.4
2018-Feb-25 02:00N 37°38' E 023°34'5 9.4
2018-Feb-25 01:30N 37°39' E 023°28'5 9.6
2018-Feb-25 01:00N 37°40' E 023°22'4 7.9
2018-Feb-25 00:30N 37°42' E 023°18'5 9.6
2018-Feb-25 00:00N 37°46' E 023°15'5 9.6
2018-Feb-24 23:30N 37°50' E 023°12'5 9.5
2018-Feb-24 23:00N 37°53' E 023°08'2 4.9
2018-Feb-24 22:30N 37°55' E 023°05'0 0.0
2018-Feb-24 22:00N 37°55' E 023°05'0 0.0
2018-Feb-24 21:30N 37°55' E 023°05'0 0.0
2018-Feb-24 21:00N 37°55' E 023°05'0 0.0
2018-Feb-24 20:30N 37°55' E 023°05'0 0.0
2018-Feb-24 20:00N 37°55' E 023°05'0 0.0
2018-Feb-24 19:30N 37°55' E 023°05'0 0.0
2018-Feb-24 19:00N 37°55' E 023°05'0 0.0
2018-Feb-24 18:30N 37°55' E 023°05'0 0.0
2018-Feb-24 18:00N 37°55' E 023°05'0 0.0
2018-Feb-24 17:30N 37°55' E 023°05'0 0.0
2018-Feb-24 17:00N 37°55' E 023°05'0 0.0
2018-Feb-24 16:30N 37°55' E 023°05'0 0.0
2018-Feb-24 16:00N 37°55' E 023°05'0 0.0
2018-Feb-24 15:30N 37°55' E 023°05'0 0.0
2018-Feb-24 15:00N 37°55' E 023°05'0 0.3
2018-Feb-24 14:30N 37°55' E 023°05'1 2.1
2018-Feb-24 14:00N 37°54' E 023°04'0 0.0
2018-Feb-24 13:30N 37°54' E 023°04'0 0.1
2018-Feb-24 13:00N 37°54' E 023°04'0 0.0
2018-Feb-24 12:30N 37°54' E 023°04'0 0.1
2018-Feb-24 12:00N 37°54' E 023°04'0 0.0
2018-Feb-24 11:30N 37°54' E 023°04'0 0.1
2018-Feb-24 11:00N 37°54' E 023°04'0 0.0
2018-Feb-24 10:30N 37°54' E 023°04'0 0.0
2018-Feb-24 10:00N 37°54' E 023°04'0 0.0
2018-Feb-24 09:30N 37°54' E 023°04'0 0.0
2018-Feb-24 09:00N 37°54' E 023°04'0 0.0
2018-Feb-24 08:30N 37°54' E 023°04'0 0.0
2018-Feb-24 08:00N 37°54' E 023°04'0 0.0
2018-Feb-24 07:30N 37°54' E 023°04'0 0.0
2018-Feb-24 07:00N 37°54' E 023°04'0 0.0
2018-Feb-24 06:30N 37°54' E 023°04'0 0.0
2018-Feb-24 06:00N 37°54' E 023°04'0 0.1
2018-Feb-24 05:30N 37°54' E 023°04'0 0.1
2018-Feb-24 05:00N 37°54' E 023°04'0 0.2
2018-Feb-24 04:30N 37°54' E 023°04'0 0.0
2018-Feb-24 04:00N 37°54' E 023°04'0 0.0
2018-Feb-24 03:30N 37°54' E 023°04'0 0.0
2018-Feb-24 03:00N 37°54' E 023°04'0 0.0
2018-Feb-24 02:30N 37°54' E 023°04'0 0.0
2018-Feb-24 02:00N 37°54' E 023°04'0 0.0
2018-Feb-24 01:30N 37°54' E 023°04'0 0.0
2018-Feb-24 01:00N 37°54' E 023°04'0 0.0
2018-Feb-24 00:30N 37°54' E 023°04'0 0.0
2018-Feb-24 00:00N 37°54' E 023°04'0 0.0
2018-Feb-23 23:30N 37°54' E 023°04'0 0.0
2018-Feb-23 23:00N 37°54' E 023°04'0 0.0
2018-Feb-23 22:30N 37°54' E 023°04'0 0.0
2018-Feb-23 22:00N 37°54' E 023°04'0 0.0
2018-Feb-23 21:30N 37°54' E 023°04'0 0.0
2018-Feb-23 21:00N 37°54' E 023°04'0 0.0
2018-Feb-23 20:30N 37°54' E 023°04'0 0.1
2018-Feb-23 20:00N 37°54' E 023°04'0 0.1
2018-Feb-23 19:30N 37°54' E 023°04'0 0.1
2018-Feb-23 19:00N 37°54' E 023°04'0 0.1
2018-Feb-23 18:30N 37°54' E 023°04'0 0.0
2018-Feb-23 18:00N 37°54' E 023°04'0 0.0
2018-Feb-23 17:30N 37°54' E 023°04'0 0.0
2018-Feb-23 17:00N 37°54' E 023°04'0 0.0
2018-Feb-23 16:30N 37°54' E 023°04'0 0.0
2018-Feb-23 16:00N 37°54' E 023°04'0 0.0
2018-Feb-23 15:30N 37°54' E 023°04'0 0.0
2018-Feb-23 15:00N 37°54' E 023°04'0 0.0
2018-Feb-23 14:30N 37°54' E 023°04'0 0.0
2018-Feb-23 14:00N 37°54' E 023°04'0 0.0
2018-Feb-23 13:30N 37°54' E 023°04'0 0.0
2018-Feb-23 13:00N 37°54' E 023°04'0 0.0
2018-Feb-23 12:30N 37°54' E 023°04'0 0.0
2018-Feb-23 12:00N 37°54' E 023°04'0 0.0
2018-Feb-23 11:30N 37°54' E 023°04'0 0.0
2018-Feb-23 11:00N 37°54' E 023°04'2 3.4
2018-Feb-23 10:30N 37°54' E 023°06'510.0
2018-Feb-23 10:00N 37°51' E 023°11'611.2
2018-Feb-23 09:30N 37°46' E 023°15'511.0
2018-Feb-23 09:00N 37°41' E 023°18'510.3
2018-Feb-23 08:30N 37°40' E 023°24'510.5
2018-Feb-23 08:00N 37°38' E 023°31'510.8
2018-Feb-23 07:30N 37°37' E 023°37'510.7
2018-Feb-23 07:00N 37°36' E 023°44'4910.7
2018-Feb-23 02:25N 37°23' E 024°44'410.7
2018-Feb-23 02:00N 37°22' E 024°49'510.2
2018-Feb-23 01:30N 37°20' E 024°55'510.2
2018-Feb-23 01:00N 37°19' E 025°01'510.6
2018-Feb-23 00:30N 37°18' E 025°08'510.8
2018-Feb-23 00:00N 37°17' E 025°15'510.8
2018-Feb-22 23:30N 37°16' E 025°21'510.5
2018-Feb-22 23:00N 37°16' E 025°28'510.1
2018-Feb-22 22:30N 37°14' E 025°34'510.5
2018-Feb-22 22:00N 37°13' E 025°40'510.7
2018-Feb-22 21:30N 37°12' E 025°47'  

Dump ship's entire track history